sensor_id;sensor_type;location;lat;lon;timestamp;P1;durP1;ratioP1;P2;durP2;ratioP2
20928;SDS011;21895;47.072;15.132;2023-03-23T00:01:15;10.17;;;5.27;;
20928;SDS011;21895;47.072;15.132;2023-03-23T00:03:49;10.07;;;5.57;;
20928;SDS011;21895;47.072;15.132;2023-03-23T00:06:18;11.47;;;5.33;;
20928;SDS011;21895;47.072;15.132;2023-03-23T00:08:49;10.73;;;5.40;;
20928;SDS011;21895;47.072;15.132;2023-03-23T00:11:28;10.20;;;5.23;;
20928;SDS011;21895;47.072;15.132;2023-03-23T00:13:57;10.77;;;5.23;;
20928;SDS011;21895;47.072;15.132;2023-03-23T00:16:26;11.80;;;5.63;;
20928;SDS011;21895;47.072;15.132;2023-03-23T00:19:00;12.90;;;5.37;;
20928;SDS011;21895;47.072;15.132;2023-03-23T00:21:32;10.30;;;5.47;;
20928;SDS011;21895;47.072;15.132;2023-03-23T00:24:11;11.00;;;5.00;;
20928;SDS011;21895;47.072;15.132;2023-03-23T00:26:44;9.27;;;5.07;;
20928;SDS011;21895;47.072;15.132;2023-03-23T00:29:13;8.50;;;5.00;;
20928;SDS011;21895;47.072;15.132;2023-03-23T00:31:46;9.37;;;5.23;;
20928;SDS011;21895;47.072;15.132;2023-03-23T00:34:17;7.93;;;4.87;;
20928;SDS011;21895;47.072;15.132;2023-03-23T00:36:50;13.57;;;5.90;;
20928;SDS011;21895;47.072;15.132;2023-03-23T00:39:22;10.40;;;5.73;;
20928;SDS011;21895;47.072;15.132;2023-03-23T00:41:50;8.30;;;4.97;;
20928;SDS011;21895;47.072;15.132;2023-03-23T00:44:18;12.93;;;5.73;;
20928;SDS011;21895;47.072;15.132;2023-03-23T00:46:49;10.50;;;5.97;;
20928;SDS011;21895;47.072;15.132;2023-03-23T00:49:16;8.97;;;5.37;;
20928;SDS011;21895;47.072;15.132;2023-03-23T00:51:45;13.77;;;6.30;;
20928;SDS011;21895;47.072;15.132;2023-03-23T00:54:13;12.93;;;5.30;;
20928;SDS011;21895;47.072;15.132;2023-03-23T00:56:39;12.63;;;5.30;;
20928;SDS011;21895;47.072;15.132;2023-03-23T00:59:05;12.57;;;5.50;;
20928;SDS011;21895;47.072;15.132;2023-03-23T01:01:32;15.47;;;6.03;;
20928;SDS011;21895;47.072;15.132;2023-03-23T01:03:59;11.17;;;4.90;;
20928;SDS011;21895;47.072;15.132;2023-03-23T01:06:33;14.20;;;6.03;;
20928;SDS011;21895;47.072;15.132;2023-03-23T01:09:04;8.87;;;5.50;;
20928;SDS011;21895;47.072;15.132;2023-03-23T01:11:36;15.03;;;6.07;;
20928;SDS011;21895;47.072;15.132;2023-03-23T01:14:03;9.33;;;5.40;;
20928;SDS011;21895;47.072;15.132;2023-03-23T01:16:30;18.43;;;6.03;;
20928;SDS011;21895;47.072;15.132;2023-03-23T01:18:56;13.53;;;5.90;;
20928;SDS011;21895;47.072;15.132;2023-03-23T01:21:22;9.73;;;5.53;;
20928;SDS011;21895;47.072;15.132;2023-03-23T01:23:50;11.77;;;5.27;;
20928;SDS011;21895;47.072;15.132;2023-03-23T01:26:21;11.23;;;5.67;;
20928;SDS011;21895;47.072;15.132;2023-03-23T01:28:51;17.17;;;5.60;;
20928;SDS011;21895;47.072;15.132;2023-03-23T01:31:19;14.33;;;5.93;;
20928;SDS011;21895;47.072;15.132;2023-03-23T01:33:49;13.40;;;5.70;;
20928;SDS011;21895;47.072;15.132;2023-03-23T01:36:18;14.63;;;6.47;;
20928;SDS011;21895;47.072;15.132;2023-03-23T01:38:49;11.80;;;6.00;;
20928;SDS011;21895;47.072;15.132;2023-03-23T01:41:16;9.50;;;4.97;;
20928;SDS011;21895;47.072;15.132;2023-03-23T01:44:04;10.40;;;5.20;;
20928;SDS011;21895;47.072;15.132;2023-03-23T01:47:24;18.10;;;5.67;;
20928;SDS011;21895;47.072;15.132;2023-03-23T01:49:51;14.17;;;5.93;;
20928;SDS011;21895;47.072;15.132;2023-03-23T01:52:24;12.13;;;6.00;;
20928;SDS011;21895;47.072;15.132;2023-03-23T01:54:54;10.57;;;5.80;;
20928;SDS011;21895;47.072;15.132;2023-03-23T01:57:23;11.33;;;5.50;;
20928;SDS011;21895;47.072;15.132;2023-03-23T01:59:52;15.43;;;5.60;;
20928;SDS011;21895;47.072;15.132;2023-03-23T02:02:24;8.67;;;5.30;;
20928;SDS011;21895;47.072;15.132;2023-03-23T02:04:51;10.87;;;5.60;;
20928;SDS011;21895;47.072;15.132;2023-03-23T02:07:27;10.93;;;5.50;;
20928;SDS011;21895;47.072;15.132;2023-03-23T02:09:53;11.57;;;5.50;;
20928;SDS011;21895;47.072;15.132;2023-03-23T02:12:20;9.60;;;5.33;;
20928;SDS011;21895;47.072;15.132;2023-03-23T02:14:46;10.13;;;5.57;;
20928;SDS011;21895;47.072;15.132;2023-03-23T02:17:23;9.27;;;5.47;;
20928;SDS011;21895;47.072;15.132;2023-03-23T02:20:19;10.90;;;5.30;;
20928;SDS011;21895;47.072;15.132;2023-03-23T02:28:11;13.17;;;5.27;;
20928;SDS011;21895;47.072;15.132;2023-03-23T02:32:28;15.20;;;5.23;;
20928;SDS011;21895;47.072;15.132;2023-03-23T02:35:50;12.63;;;5.27;;
20928;SDS011;21895;47.072;15.132;2023-03-23T02:39:14;8.87;;;4.97;;
20928;SDS011;21895;47.072;15.132;2023-03-23T02:41:54;9.27;;;5.23;;
20928;SDS011;21895;47.072;15.132;2023-03-23T02:44:29;10.03;;;5.87;;
20928;SDS011;21895;47.072;15.132;2023-03-23T02:47:00;11.37;;;5.30;;
20928;SDS011;21895;47.072;15.132;2023-03-23T02:49:33;14.37;;;5.00;;
20928;SDS011;21895;47.072;15.132;2023-03-23T02:52:13;9.80;;;5.07;;
20928;SDS011;21895;47.072;15.132;2023-03-23T02:54:47;13.13;;;5.60;;
20928;SDS011;21895;47.072;15.132;2023-03-23T02:57:16;9.97;;;5.20;;
20928;SDS011;21895;47.072;15.132;2023-03-23T02:59:42;9.77;;;5.20;;
20928;SDS011;21895;47.072;15.132;2023-03-23T03:02:21;20.43;;;8.23;;
20928;SDS011;21895;47.072;15.132;2023-03-23T03:11:08;12.10;;;5.53;;
20928;SDS011;21895;47.072;15.132;2023-03-23T03:17:31;12.27;;;5.43;;
20928;SDS011;21895;47.072;15.132;2023-03-23T03:20:02;11.57;;;4.90;;
20928;SDS011;21895;47.072;15.132;2023-03-23T03:22:37;14.60;;;6.27;;
20928;SDS011;21895;47.072;15.132;2023-03-23T03:25:09;12.37;;;5.63;;
20928;SDS011;21895;47.072;15.132;2023-03-23T03:27:38;16.17;;;5.70;;
20928;SDS011;21895;47.072;15.132;2023-03-23T03:30:07;10.67;;;5.47;;
20928;SDS011;21895;47.072;15.132;2023-03-23T03:32:44;11.23;;;5.47;;
20928;SDS011;21895;47.072;15.132;2023-03-23T03:35:19;12.43;;;6.27;;
20928;SDS011;21895;47.072;15.132;2023-03-23T03:37:48;13.00;;;5.70;;
20928;SDS011;21895;47.072;15.132;2023-03-23T03:40:17;12.53;;;5.70;;
20928;SDS011;21895;47.072;15.132;2023-03-23T03:42:47;14.30;;;6.07;;
20928;SDS011;21895;47.072;15.132;2023-03-23T03:45:14;14.43;;;5.80;;
20928;SDS011;21895;47.072;15.132;2023-03-23T03:47:44;10.40;;;5.40;;
20928;SDS011;21895;47.072;15.132;2023-03-23T03:50:11;8.90;;;5.07;;
20928;SDS011;21895;47.072;15.132;2023-03-23T03:52:38;10.83;;;5.47;;
20928;SDS011;21895;47.072;15.132;2023-03-23T03:55:06;8.30;;;5.07;;
20928;SDS011;21895;47.072;15.132;2023-03-23T03:57:35;9.90;;;5.30;;
20928;SDS011;21895;47.072;15.132;2023-03-23T04:00:02;11.17;;;5.63;;
20928;SDS011;21895;47.072;15.132;2023-03-23T04:02:41;11.43;;;6.43;;
20928;SDS011;21895;47.072;15.132;2023-03-23T04:05:12;16.67;;;7.57;;
20928;SDS011;21895;47.072;15.132;2023-03-23T04:07:39;9.50;;;5.23;;
20928;SDS011;21895;47.072;15.132;2023-03-23T04:10:06;9.53;;;5.30;;
20928;SDS011;21895;47.072;15.132;2023-03-23T04:12:35;11.40;;;5.63;;
20928;SDS011;21895;47.072;15.132;2023-03-23T04:15:02;12.80;;;5.23;;
20928;SDS011;21895;47.072;15.132;2023-03-23T04:17:29;8.13;;;5.10;;
20928;SDS011;21895;47.072;15.132;2023-03-23T04:19:55;9.97;;;5.80;;
20928;SDS011;21895;47.072;15.132;2023-03-23T04:22:22;13.13;;;5.37;;
20928;SDS011;21895;47.072;15.132;2023-03-23T04:24:58;8.57;;;4.97;;
20928;SDS011;21895;47.072;15.132;2023-03-23T04:27:27;11.37;;;5.23;;
20928;SDS011;21895;47.072;15.132;2023-03-23T04:29:56;9.27;;;5.33;;
20928;SDS011;21895;47.072;15.132;2023-03-23T04:32:26;9.03;;;4.93;;
20928;SDS011;21895;47.072;15.132;2023-03-23T04:34:54;9.50;;;5.20;;
20928;SDS011;21895;47.072;15.132;2023-03-23T04:37:23;9.90;;;5.77;;
20928;SDS011;21895;47.072;15.132;2023-03-23T04:39:51;13.43;;;5.77;;
20928;SDS011;21895;47.072;15.132;2023-03-23T04:42:26;10.27;;;5.30;;
20928;SDS011;21895;47.072;15.132;2023-03-23T04:44:54;13.47;;;5.93;;
20928;SDS011;21895;47.072;15.132;2023-03-23T04:47:22;11.17;;;6.47;;
20928;SDS011;21895;47.072;15.132;2023-03-23T04:49:50;10.20;;;5.50;;
20928;SDS011;21895;47.072;15.132;2023-03-23T04:52:17;17.03;;;6.50;;
20928;SDS011;21895;47.072;15.132;2023-03-23T04:54:45;13.07;;;5.57;;
20928;SDS011;21895;47.072;15.132;2023-03-23T04:57:12;9.03;;;4.90;;
20928;SDS011;21895;47.072;15.132;2023-03-23T04:59:40;16.57;;;5.50;;
20928;SDS011;21895;47.072;15.132;2023-03-23T05:02:09;11.67;;;5.63;;
20928;SDS011;21895;47.072;15.132;2023-03-23T05:04:36;11.80;;;5.90;;
20928;SDS011;21895;47.072;15.132;2023-03-23T05:07:03;10.80;;;6.00;;
20928;SDS011;21895;47.072;15.132;2023-03-23T05:09:29;12.80;;;6.07;;
20928;SDS011;21895;47.072;15.132;2023-03-23T05:11:56;17.30;;;5.57;;
20928;SDS011;21895;47.072;15.132;2023-03-23T05:14:24;10.37;;;5.73;;
20928;SDS011;21895;47.072;15.132;2023-03-23T05:16:50;10.37;;;5.57;;
20928;SDS011;21895;47.072;15.132;2023-03-23T05:19:17;13.53;;;6.00;;
20928;SDS011;21895;47.072;15.132;2023-03-23T05:21:43;12.50;;;6.00;;
20928;SDS011;21895;47.072;15.132;2023-03-23T05:24:09;13.63;;;5.57;;
20928;SDS011;21895;47.072;15.132;2023-03-23T05:26:36;10.80;;;6.00;;
20928;SDS011;21895;47.072;15.132;2023-03-23T05:29:02;11.43;;;5.87;;
20928;SDS011;21895;47.072;15.132;2023-03-23T05:31:28;13.40;;;6.00;;
20928;SDS011;21895;47.072;15.132;2023-03-23T05:33:55;15.13;;;5.83;;
20928;SDS011;21895;47.072;15.132;2023-03-23T05:36:21;12.57;;;5.87;;
20928;SDS011;21895;47.072;15.132;2023-03-23T05:38:48;10.67;;;5.30;;
20928;SDS011;21895;47.072;15.132;2023-03-23T05:41:16;10.10;;;5.40;;
20928;SDS011;21895;47.072;15.132;2023-03-23T05:43:42;11.63;;;5.73;;
20928;SDS011;21895;47.072;15.132;2023-03-23T05:46:08;9.50;;;5.20;;
20928;SDS011;21895;47.072;15.132;2023-03-23T05:48:35;9.67;;;5.30;;
20928;SDS011;21895;47.072;15.132;2023-03-23T05:51:02;9.13;;;5.37;;
20928;SDS011;21895;47.072;15.132;2023-03-23T05:53:28;9.70;;;5.33;;
20928;SDS011;21895;47.072;15.132;2023-03-23T05:55:59;10.47;;;5.33;;
20928;SDS011;21895;47.072;15.132;2023-03-23T05:58:26;12.07;;;5.87;;
20928;SDS011;21895;47.072;15.132;2023-03-23T06:00:52;11.73;;;6.10;;
20928;SDS011;21895;47.072;15.132;2023-03-23T06:03:18;21.03;;;8.97;;
20928;SDS011;21895;47.072;15.132;2023-03-23T06:05:46;31.37;;;12.27;;
20928;SDS011;21895;47.072;15.132;2023-03-23T06:08:12;21.53;;;9.60;;
20928;SDS011;21895;47.072;15.132;2023-03-23T06:10:38;24.50;;;10.00;;
20928;SDS011;21895;47.072;15.132;2023-03-23T06:13:04;26.43;;;10.00;;
20928;SDS011;21895;47.072;15.132;2023-03-23T06:15:31;44.23;;;17.00;;
20928;SDS011;21895;47.072;15.132;2023-03-23T06:17:58;37.67;;;15.83;;
20928;SDS011;21895;47.072;15.132;2023-03-23T06:20:25;15.13;;;6.60;;
20928;SDS011;21895;47.072;15.132;2023-03-23T06:22:51;13.17;;;6.57;;
20928;SDS011;21895;47.072;15.132;2023-03-23T06:25:18;9.83;;;5.63;;
20928;SDS011;21895;47.072;15.132;2023-03-23T06:27:44;13.70;;;6.03;;
20928;SDS011;21895;47.072;15.132;2023-03-23T06:30:11;15.50;;;7.17;;
20928;SDS011;21895;47.072;15.132;2023-03-23T06:32:40;12.67;;;6.90;;
20928;SDS011;21895;47.072;15.132;2023-03-23T06:35:08;14.97;;;6.67;;
20928;SDS011;21895;47.072;15.132;2023-03-23T06:40:06;11.20;;;6.57;;
20928;SDS011;21895;47.072;15.132;2023-03-23T06:42:35;16.27;;;7.10;;
20928;SDS011;21895;47.072;15.132;2023-03-23T06:45:02;16.03;;;7.20;;
20928;SDS011;21895;47.072;15.132;2023-03-23T06:47:30;23.63;;;7.97;;
20928;SDS011;21895;47.072;15.132;2023-03-23T06:49:57;16.63;;;7.63;;
20928;SDS011;21895;47.072;15.132;2023-03-23T06:52:24;21.23;;;8.23;;
20928;SDS011;21895;47.072;15.132;2023-03-23T06:54:51;28.97;;;8.90;;
20928;SDS011;21895;47.072;15.132;2023-03-23T06:57:18;18.80;;;7.97;;
20928;SDS011;21895;47.072;15.132;2023-03-23T06:59:45;26.87;;;9.10;;
20928;SDS011;21895;47.072;15.132;2023-03-23T07:02:12;18.57;;;9.37;;
20928;SDS011;21895;47.072;15.132;2023-03-23T07:04:40;18.00;;;9.93;;
20928;SDS011;21895;47.072;15.132;2023-03-23T07:07:10;26.77;;;9.80;;
20928;SDS011;21895;47.072;15.132;2023-03-23T07:09:39;19.10;;;9.43;;
20928;SDS011;21895;47.072;15.132;2023-03-23T07:12:07;17.97;;;9.23;;
20928;SDS011;21895;47.072;15.132;2023-03-23T07:14:33;21.50;;;9.60;;
20928;SDS011;21895;47.072;15.132;2023-03-23T07:16:59;20.93;;;9.90;;
20928;SDS011;21895;47.072;15.132;2023-03-23T07:19:26;17.67;;;9.40;;
20928;SDS011;21895;47.072;15.132;2023-03-23T07:21:52;21.00;;;9.97;;
20928;SDS011;21895;47.072;15.132;2023-03-23T07:24:18;19.87;;;9.67;;
20928;SDS011;21895;47.072;15.132;2023-03-23T07:26:44;21.87;;;9.50;;
20928;SDS011;21895;47.072;15.132;2023-03-23T07:29:11;16.17;;;9.47;;
20928;SDS011;21895;47.072;15.132;2023-03-23T07:31:37;21.47;;;9.73;;
20928;SDS011;21895;47.072;15.132;2023-03-23T07:34:03;18.90;;;9.40;;
20928;SDS011;21895;47.072;15.132;2023-03-23T07:36:29;21.60;;;9.23;;
20928;SDS011;21895;47.072;15.132;2023-03-23T07:38:57;20.47;;;8.93;;
20928;SDS011;21895;47.072;15.132;2023-03-23T07:41:24;23.47;;;8.37;;
20928;SDS011;21895;47.072;15.132;2023-03-23T07:43:50;19.70;;;8.80;;
20928;SDS011;21895;47.072;15.132;2023-03-23T07:46:16;17.63;;;8.73;;
20928;SDS011;21895;47.072;15.132;2023-03-23T07:48:43;13.93;;;8.57;;
20928;SDS011;21895;47.072;15.132;2023-03-23T07:51:09;21.93;;;8.63;;
20928;SDS011;21895;47.072;15.132;2023-03-23T07:53:35;15.03;;;8.90;;
20928;SDS011;21895;47.072;15.132;2023-03-23T07:56:01;18.40;;;8.83;;
20928;SDS011;21895;47.072;15.132;2023-03-23T07:58:28;15.80;;;8.73;;
20928;SDS011;21895;47.072;15.132;2023-03-23T08:00:54;17.93;;;9.07;;
20928;SDS011;21895;47.072;15.132;2023-03-23T08:03:22;20.17;;;8.70;;
20928;SDS011;21895;47.072;15.132;2023-03-23T08:05:49;15.30;;;8.40;;
20928;SDS011;21895;47.072;15.132;2023-03-23T08:08:15;19.10;;;8.83;;
20928;SDS011;21895;47.072;15.132;2023-03-23T08:10:41;16.10;;;8.50;;
20928;SDS011;21895;47.072;15.132;2023-03-23T08:13:07;17.50;;;8.30;;
20928;SDS011;21895;47.072;15.132;2023-03-23T08:15:34;21.73;;;8.27;;
20928;SDS011;21895;47.072;15.132;2023-03-23T08:18:02;16.50;;;8.60;;
20928;SDS011;21895;47.072;15.132;2023-03-23T08:20:30;17.20;;;8.30;;
20928;SDS011;21895;47.072;15.132;2023-03-23T08:22:56;14.63;;;8.55;;
20928;SDS011;21895;47.072;15.132;2023-03-23T08:25:23;13.37;;;8.37;;
20928;SDS011;21895;47.072;15.132;2023-03-23T08:27:51;18.20;;;8.05;;
20928;SDS011;21895;47.072;15.132;2023-03-23T08:30:19;14.95;;;7.93;;
20928;SDS011;21895;47.072;15.132;2023-03-23T08:32:48;19.00;;;9.25;;
20928;SDS011;21895;47.072;15.132;2023-03-23T08:35:15;15.18;;;7.78;;
20928;SDS011;21895;47.072;15.132;2023-03-23T08:37:43;17.73;;;7.72;;
20928;SDS011;21895;47.072;15.132;2023-03-23T08:40:12;16.17;;;7.72;;
20928;SDS011;21895;47.072;15.132;2023-03-23T08:42:41;19.60;;;7.45;;
20928;SDS011;21895;47.072;15.132;2023-03-23T08:45:10;13.73;;;7.35;;
20928;SDS011;21895;47.072;15.132;2023-03-23T08:47:40;12.68;;;8.18;;
20928;SDS011;21895;47.072;15.132;2023-03-23T08:50:08;17.10;;;8.82;;
20928;SDS011;21895;47.072;15.132;2023-03-23T08:52:38;18.35;;;8.52;;
20928;SDS011;21895;47.072;15.132;2023-03-23T08:55:05;23.00;;;9.45;;
20928;SDS011;21895;47.072;15.132;2023-03-23T08:57:34;18.35;;;9.10;;
20928;SDS011;21895;47.072;15.132;2023-03-23T09:00:02;15.98;;;9.30;;
20928;SDS011;21895;47.072;15.132;2023-03-23T09:02:46;18.05;;;9.20;;
20928;SDS011;21895;47.072;15.132;2023-03-23T09:05:16;27.35;;;9.73;;
20928;SDS011;21895;47.072;15.132;2023-03-23T09:07:46;12.55;;;8.30;;
20928;SDS011;21895;47.072;15.132;2023-03-23T09:10:15;19.07;;;8.23;;
20928;SDS011;21895;47.072;15.132;2023-03-23T09:12:43;13.10;;;7.40;;
20928;SDS011;21895;47.072;15.132;2023-03-23T09:15:13;17.65;;;7.60;;
20928;SDS011;21895;47.072;15.132;2023-03-23T09:17:46;13.48;;;6.78;;
20928;SDS011;21895;47.072;15.132;2023-03-23T09:20:17;13.68;;;6.57;;
20928;SDS011;21895;47.072;15.132;2023-03-23T09:22:48;12.02;;;6.72;;
20928;SDS011;21895;47.072;15.132;2023-03-23T09:25:18;14.00;;;6.45;;
20928;SDS011;21895;47.072;15.132;2023-03-23T09:27:50;18.70;;;6.43;;
20928;SDS011;21895;47.072;15.132;2023-03-23T09:30:21;10.30;;;5.68;;
20928;SDS011;21895;47.072;15.132;2023-03-23T09:32:55;13.85;;;6.20;;
20928;SDS011;21895;47.072;15.132;2023-03-23T09:35:23;13.15;;;7.35;;
20928;SDS011;21895;47.072;15.132;2023-03-23T09:37:50;14.60;;;7.70;;
20928;SDS011;21895;47.072;15.132;2023-03-23T09:40:22;14.75;;;6.93;;
20928;SDS011;21895;47.072;15.132;2023-03-23T09:54:45;15.55;;;7.43;;
20928;SDS011;21895;47.072;15.132;2023-03-23T09:57:32;17.45;;;7.72;;
20928;SDS011;21895;47.072;15.132;2023-03-23T10:00:16;15.70;;;7.85;;
20928;SDS011;21895;47.072;15.132;2023-03-23T10:03:14;20.77;;;7.45;;
20928;SDS011;21895;47.072;15.132;2023-03-23T10:05:51;22.33;;;7.05;;
20928;SDS011;21895;47.072;15.132;2023-03-23T10:08:21;14.63;;;6.80;;
20928;SDS011;21895;47.072;15.132;2023-03-23T10:10:59;14.82;;;6.90;;
20928;SDS011;21895;47.072;15.132;2023-03-23T10:18:02;13.18;;;6.60;;
20928;SDS011;21895;47.072;15.132;2023-03-23T10:23:13;22.08;;;6.62;;
20928;SDS011;21895;47.072;15.132;2023-03-23T10:26:26;18.02;;;6.40;;
20928;SDS011;21895;47.072;15.132;2023-03-23T10:31:48;70.00;;;7.82;;
20928;SDS011;21895;47.072;15.132;2023-03-23T10:37:49;19.45;;;6.47;;
20928;SDS011;21895;47.072;15.132;2023-03-23T10:40:27;10.60;;;6.20;;
20928;SDS011;21895;47.072;15.132;2023-03-23T10:42:56;13.32;;;6.97;;
20928;SDS011;21895;47.072;15.132;2023-03-23T10:45:25;17.40;;;6.78;;
20928;SDS011;21895;47.072;15.132;2023-03-23T10:51:03;14.10;;;6.53;;
20928;SDS011;21895;47.072;15.132;2023-03-23T10:53:42;9.88;;;5.90;;
20928;SDS011;21895;47.072;15.132;2023-03-23T10:56:45;10.00;;;5.55;;
20928;SDS011;21895;47.072;15.132;2023-03-23T10:59:21;10.40;;;6.28;;
20928;SDS011;21895;47.072;15.132;2023-03-23T11:01:58;10.60;;;5.82;;
20928;SDS011;21895;47.072;15.132;2023-03-23T11:04:28;9.45;;;5.78;;
20928;SDS011;21895;47.072;15.132;2023-03-23T11:06:58;7.87;;;5.75;;
20928;SDS011;21895;47.072;15.132;2023-03-23T11:09:38;11.77;;;6.05;;
20928;SDS011;21895;47.072;15.132;2023-03-23T11:12:18;14.27;;;6.20;;
20928;SDS011;21895;47.072;15.132;2023-03-23T11:14:45;10.82;;;5.47;;
20928;SDS011;21895;47.072;15.132;2023-03-23T11:17:22;14.15;;;6.32;;
20928;SDS011;21895;47.072;15.132;2023-03-23T11:19:53;13.62;;;6.28;;
20928;SDS011;21895;47.072;15.132;2023-03-23T11:22:29;11.93;;;5.97;;
20928;SDS011;21895;47.072;15.132;2023-03-23T11:25:02;10.75;;;5.93;;
20928;SDS011;21895;47.072;15.132;2023-03-23T11:27:37;9.75;;;6.00;;
20928;SDS011;21895;47.072;15.132;2023-03-23T11:30:15;10.32;;;6.20;;
20928;SDS011;21895;47.072;15.132;2023-03-23T11:32:59;8.45;;;5.60;;
20928;SDS011;21895;47.072;15.132;2023-03-23T11:35:28;10.15;;;6.18;;
20928;SDS011;21895;47.072;15.132;2023-03-23T11:37:55;11.75;;;6.47;;
20928;SDS011;21895;47.072;15.132;2023-03-23T11:40:25;9.68;;;6.57;;
20928;SDS011;21895;47.072;15.132;2023-03-23T11:43:00;11.05;;;6.22;;
20928;SDS011;21895;47.072;15.132;2023-03-23T11:45:45;12.85;;;6.50;;
20928;SDS011;21895;47.072;15.132;2023-03-23T11:51:42;10.50;;;6.07;;
20928;SDS011;21895;47.072;15.132;2023-03-23T11:54:19;9.80;;;6.10;;
20928;SDS011;21895;47.072;15.132;2023-03-23T11:57:08;8.45;;;5.22;;
20928;SDS011;21895;47.072;15.132;2023-03-23T11:59:37;17.12;;;6.47;;
20928;SDS011;21895;47.072;15.132;2023-03-23T12:08:48;8.30;;;5.95;;
20928;SDS011;21895;47.072;15.132;2023-03-23T12:12:49;11.40;;;6.05;;
20928;SDS011;21895;47.072;15.132;2023-03-23T12:21:22;9.48;;;6.55;;
20928;SDS011;21895;47.072;15.132;2023-03-23T12:25:34;9.85;;;6.43;;
20928;SDS011;21895;47.072;15.132;2023-03-23T12:28:55;8.05;;;5.78;;
20928;SDS011;21895;47.072;15.132;2023-03-23T12:37:10;11.45;;;5.90;;
20928;SDS011;21895;47.072;15.132;2023-03-23T12:44:26;8.18;;;5.95;;
20928;SDS011;21895;47.072;15.132;2023-03-23T12:47:10;11.32;;;6.97;;
20928;SDS011;21895;47.072;15.132;2023-03-23T12:50:18;11.60;;;6.00;;
20928;SDS011;21895;47.072;15.132;2023-03-23T12:53:23;10.85;;;5.40;;
20928;SDS011;21895;47.072;15.132;2023-03-23T12:56:16;10.30;;;5.95;;
20928;SDS011;21895;47.072;15.132;2023-03-23T13:04:04;8.40;;;5.57;;
20928;SDS011;21895;47.072;15.132;2023-03-23T13:06:46;10.27;;;5.93;;
20928;SDS011;21895;47.072;15.132;2023-03-23T13:09:22;12.95;;;6.10;;
20928;SDS011;21895;47.072;15.132;2023-03-23T13:12:10;8.75;;;5.95;;
20928;SDS011;21895;47.072;15.132;2023-03-23T13:14:43;9.45;;;5.72;;
20928;SDS011;21895;47.072;15.132;2023-03-23T13:18:17;8.05;;;5.65;;
20928;SDS011;21895;47.072;15.132;2023-03-23T13:23:02;10.55;;;5.60;;
20928;SDS011;21895;47.072;15.132;2023-03-23T13:26:00;9.20;;;5.35;;
20928;SDS011;21895;47.072;15.132;2023-03-23T13:32:19;10.73;;;5.82;;
20928;SDS011;21895;47.072;15.132;2023-03-23T13:34:46;10.45;;;6.00;;
20928;SDS011;21895;47.072;15.132;2023-03-23T13:37:24;8.60;;;5.18;;
20928;SDS011;21895;47.072;15.132;2023-03-23T13:39:53;12.73;;;5.65;;
20928;SDS011;21895;47.072;15.132;2023-03-23T13:42:27;9.82;;;5.40;;
20928;SDS011;21895;47.072;15.132;2023-03-23T13:45:07;9.52;;;5.93;;
20928;SDS011;21895;47.072;15.132;2023-03-23T13:50:25;8.65;;;5.60;;
20928;SDS011;21895;47.072;15.132;2023-03-23T13:53:00;9.95;;;5.62;;
20928;SDS011;21895;47.072;15.132;2023-03-23T13:55:40;9.00;;;5.30;;
20928;SDS011;21895;47.072;15.132;2023-03-23T13:58:22;8.25;;;5.00;;
20928;SDS011;21895;47.072;15.132;2023-03-23T14:04:46;8.00;;;4.60;;
20928;SDS011;21895;47.072;15.132;2023-03-23T14:07:16;10.88;;;5.80;;
20928;SDS011;21895;47.072;15.132;2023-03-23T14:09:44;8.75;;;5.37;;
20928;SDS011;21895;47.072;15.132;2023-03-23T14:12:19;9.25;;;5.82;;
20928;SDS011;21895;47.072;15.132;2023-03-23T14:14:56;23.20;;;5.60;;
20928;SDS011;21895;47.072;15.132;2023-03-23T14:17:30;11.18;;;5.35;;
20928;SDS011;21895;47.072;15.132;2023-03-23T14:20:06;8.88;;;5.12;;
20928;SDS011;21895;47.072;15.132;2023-03-23T14:22:46;11.88;;;5.78;;
20928;SDS011;21895;47.072;15.132;2023-03-23T14:25:20;23.98;;;5.47;;
20928;SDS011;21895;47.072;15.132;2023-03-23T14:27:50;10.07;;;5.28;;
20928;SDS011;21895;47.072;15.132;2023-03-23T14:30:22;13.73;;;5.72;;
20928;SDS011;21895;47.072;15.132;2023-03-23T14:32:51;21.95;;;6.35;;
20928;SDS011;21895;47.072;15.132;2023-03-23T14:35:27;15.07;;;8.35;;
20928;SDS011;21895;47.072;15.132;2023-03-23T14:38:03;15.40;;;5.78;;
20928;SDS011;21895;47.072;15.132;2023-03-23T14:40:36;12.07;;;5.35;;
20928;SDS011;21895;47.072;15.132;2023-03-23T14:43:02;10.73;;;5.68;;
20928;SDS011;21895;47.072;15.132;2023-03-23T14:45:30;8.43;;;5.22;;
20928;SDS011;21895;47.072;15.132;2023-03-23T14:48:00;15.43;;;5.97;;
20928;SDS011;21895;47.072;15.132;2023-03-23T14:50:50;13.32;;;5.70;;
20928;SDS011;21895;47.072;15.132;2023-03-23T14:53:31;10.07;;;5.32;;
20928;SDS011;21895;47.072;15.132;2023-03-23T14:56:14;10.73;;;5.60;;
20928;SDS011;21895;47.072;15.132;2023-03-23T14:58:44;8.15;;;5.50;;
20928;SDS011;21895;47.072;15.132;2023-03-23T15:01:23;10.10;;;5.53;;
20928;SDS011;21895;47.072;15.132;2023-03-23T15:04:00;7.90;;;5.72;;
20928;SDS011;21895;47.072;15.132;2023-03-23T15:06:35;7.87;;;5.72;;
20928;SDS011;21895;47.072;15.132;2023-03-23T15:09:06;10.68;;;5.28;;
20928;SDS011;21895;47.072;15.132;2023-03-23T15:11:40;9.50;;;5.93;;
20928;SDS011;21895;47.072;15.132;2023-03-23T15:14:20;8.82;;;5.55;;
20928;SDS011;21895;47.072;15.132;2023-03-23T15:16:58;8.77;;;5.90;;
20928;SDS011;21895;47.072;15.132;2023-03-23T15:19:27;6.80;;;5.60;;
20928;SDS011;21895;47.072;15.132;2023-03-23T15:22:07;13.32;;;5.87;;
20928;SDS011;21895;47.072;15.132;2023-03-23T15:25:03;9.77;;;5.72;;
20928;SDS011;21895;47.072;15.132;2023-03-23T15:27:41;9.32;;;5.60;;
20928;SDS011;21895;47.072;15.132;2023-03-23T15:30:18;8.38;;;6.05;;
20928;SDS011;21895;47.072;15.132;2023-03-23T15:33:12;12.88;;;6.05;;
20928;SDS011;21895;47.072;15.132;2023-03-23T15:35:40;7.80;;;5.82;;
20928;SDS011;21895;47.072;15.132;2023-03-23T15:38:19;11.05;;;6.37;;
20928;SDS011;21895;47.072;15.132;2023-03-23T15:40:55;10.75;;;6.15;;
20928;SDS011;21895;47.072;15.132;2023-03-23T15:43:26;14.50;;;6.28;;
20928;SDS011;21895;47.072;15.132;2023-03-23T15:45:58;9.85;;;6.20;;
20928;SDS011;21895;47.072;15.132;2023-03-23T15:48:47;9.85;;;5.97;;
20928;SDS011;21895;47.072;15.132;2023-03-23T15:51:50;9.23;;;5.93;;
20928;SDS011;21895;47.072;15.132;2023-03-23T15:54:16;16.27;;;6.57;;
20928;SDS011;21895;47.072;15.132;2023-03-23T15:56:43;10.13;;;6.75;;
20928;SDS011;21895;47.072;15.132;2023-03-23T15:59:09;13.13;;;6.70;;
20928;SDS011;21895;47.072;15.132;2023-03-23T16:01:36;14.52;;;6.22;;
20928;SDS011;21895;47.072;15.132;2023-03-23T16:04:13;12.23;;;6.80;;
20928;SDS011;21895;47.072;15.132;2023-03-23T16:06:43;11.12;;;6.20;;
20928;SDS011;21895;47.072;15.132;2023-03-23T16:09:12;13.27;;;6.68;;
20928;SDS011;21895;47.072;15.132;2023-03-23T16:11:45;11.35;;;6.85;;
20928;SDS011;21895;47.072;15.132;2023-03-23T16:14:12;10.05;;;6.75;;
20928;SDS011;21895;47.072;15.132;2023-03-23T16:16:41;12.48;;;6.03;;
20928;SDS011;21895;47.072;15.132;2023-03-23T16:19:15;10.90;;;6.80;;
20928;SDS011;21895;47.072;15.132;2023-03-23T16:21:42;15.15;;;7.25;;
20928;SDS011;21895;47.072;15.132;2023-03-23T16:24:09;9.95;;;6.53;;
20928;SDS011;21895;47.072;15.132;2023-03-23T16:26:36;11.35;;;6.45;;
20928;SDS011;21895;47.072;15.132;2023-03-23T16:29:12;10.23;;;6.10;;